Latest Weather Observations for Port Lincoln Airport

IDS60801

Issued at 8:02 pm CDT Sunday 29 March 2020 (issued every 10 minutes, with the page automatically refreshed every 10 minutes)

About weather observations | Map of weather stations | Latest weather observations for SA | Other Formats
Station Details ID: 018192 Name: PORT LINCOLN AWS Lat: -34.60 Lon: 135.88 Height: 8.5 m
Data from the previous 72 hours. | See also: Recent months at Port Lincoln Airport
Date/Time
CDT
Temp
°C
App
Temp
°C
Dew
Point
°C
Rel
Hum
%
Delta-T
°C
Wind Press
QNH
hPa
Press
MSL
hPa
Rain since
9am
mm
Dir  Spd
km/h
Gust
km/h
Spd
kts
Gust
kts
29/08:00pm 16.7 14.9 12.0 74 2.6 WSW 13 17 7 9 1014.0 1014.0 0.0
29/07:30pm 17.9 14.8 11.7 67 3.4 SW 19 24 10 13 1013.5 1013.5 0.0
29/07:00pm 19.0 14.9 11.6 62 4.1 WSW 24 32 13 17 1013.2 1013.2 0.0
29/06:30pm 19.9 15.0 11.4 58 4.7 WSW 28 35 15 19 1012.7 1012.7 0.0
29/06:00pm 20.5 15.5 10.9 54 5.3 WSW 28 39 15 21 1012.3 1012.3 0.0
29/05:30pm 21.4 16.4 11.1 52 5.7 WSW 28 43 15 23 1011.7 1011.7 0.0
29/05:00pm 21.9 17.1 11.6 52 5.7 W 28 37 15 20 1011.4 1011.4 0.0
29/04:30pm 22.9 18.4 12.5 52 5.9 WSW 28 39 15 21 1011.1 1011.1 0.0
29/04:00pm 23.0 18.2 12.9 53 5.8 WSW 30 41 16 22 1011.0 1011.0 0.0
29/03:30pm 23.0 19.4 12.9 53 5.8 WSW 24 35 13 19 1010.7 1010.7 0.0
29/03:00pm 23.5 19.3 12.5 50 6.3 WSW 26 35 14 19 1010.9 1010.9 0.0
29/02:30pm 23.4 18.6 11.5 47 6.7 WSW 28 37 15 20 1011.0 1011.0 0.0
29/02:00pm 23.7 19.9 12.4 49 6.5 WSW 24 35 13 19 1011.0 1011.0 0.0
29/01:30pm 23.3 19.7 12.9 52 6.0 WSW 24 43 13 23 1011.3 1011.3 0.0
29/01:00pm 22.7 19.8 12.3 52 5.9 WSW 19 32 10 17 1011.4 1011.4 0.0
29/12:30pm 23.0 19.2 13.5 55 5.5 WSW 26 33 14 18 1011.2 1011.2 0.0
29/12:00pm 22.2 18.7 13.3 57 5.1 WSW 24 33 13 18 1011.4 1011.4 0.0
29/11:30am 21.6 18.9 14.7 65 4.1 W 22 33 12 18 1011.4 1011.4 0.0
29/11:00am 21.5 19.4 15.1 67 3.8 WSW 20 26 11 14 1011.4 1011.4 0.0
29/10:30am 20.2 17.5 15.6 75 2.7 WSW 24 32 13 17 1011.2 1011.2 0.0
29/10:00am 20.1 18.5 16.1 78 2.4 W 19 28 10 15 1011.2 1011.2 0.0
29/09:30am 18.9 16.8 16.1 84 1.7 W 22 32 12 17 1010.8 1010.8 0.0
29/09:00am 18.3 16.2 16.3 88 1.2 W 22 30 12 16 1010.4 1010.4 2.6
29/08:30am 17.3 16.8 15.8 91 0.9 W 13 20 7 11 1010.2 1010.2 2.6
29/08:00am 17.1 16.1 15.6 91 0.9 W 15 20 8 11 1009.7 1009.7 2.6
29/07:30am 17.3 15.9 15.6 90 1.0 WSW 17 28 9 15 1009.2 1009.2 2.6
29/07:00am 17.7 16.4 15.9 89 1.1 W 17 26 9 14 1008.8 1008.8 2.6
29/06:30am 17.8 16.1 15.8 88 1.2 WNW 19 26 10 14 1008.2 1008.2 2.6
29/06:00am 17.6 15.6 15.4 87 1.3 WNW 20 28 11 15 1007.9 1007.9 2.6
29/05:30am 18.1 14.6 15.5 85 1.5 WNW 28 35 15 19 1007.6 1007.6 2.4
29/05:00am 18.4 14.7 16.0 86 1.4 W 30 41 16 22 1007.3 1007.3 1.0
29/04:51am 18.4 15.2 16.4 88 1.2 W 28 44 15 24 1007.6 1007.6 0.6
29/04:30am 18.9 17.1 16.1 84 1.7 W 20 32 11 17 1007.3 1007.3 0.0
29/04:00am 19.2 15.7 15.5 79 2.2 SW 28 39 15 21 1006.7 1006.7 0.0
29/03:30am 20.4 18.4 16.4 78 2.4 WSW 22 30 12 16 1007.6 1007.6 0.0
29/03:00am 20.9 18.5 15.4 71 3.3 WSW 22 32 12 17 1007.1 1007.1 0.0
29/02:30am 22.5 20.0 10.9 48 6.4 WNW 15 17 8 9 1006.5 1006.5 0.0
29/02:00am 24.3 20.6 6.1 31 9.3 NW 15 20 8 11 1006.6 1006.6 0.0
29/01:30am 25.5 17.8 2.2 22 11.2 WNW 32 39 17 21 1007.0 1007.0 0.0
29/01:00am 27.4 20.0 -0.6 16 13.0 N 28 39 15 21 1005.8 1005.8 0.0
29/12:30am 28.1 19.9 -0.9 15 13.5 NNW 32 44 17 24 1005.9 1005.9 0.0
29/12:00am 28.1 20.1 1.6 18 12.9 N 33 44 18 24 1005.9 1005.9 0.0
 
Date/Time
CDT
Temp
°C
App
Temp
°C
Dew
Point
°C
Rel
Hum
%
Delta-T
°C
Wind Press
QNH
hPa
Press
MSL
hPa
Rain since
9am
mm
Dir  Spd
km/h
Gust
km/h
Spd
kts
Gust
kts
28/11:30pm 27.8 20.1 2.1 19 12.6 N 32 44 17 24 1006.2 1006.2 0.0
28/11:00pm 27.6 20.3 2.6 20 12.3 N 30 41 16 22 1006.8 1006.8 0.0
28/10:35pm 26.3 23.4 4.7 25 10.9 NE 9 24 5 13 1006.9 1006.9 0.0
28/10:30pm 20.7 19.3 7.3 42 6.9 E 4 9 2 5 1007.0 1007.0 0.0
28/10:00pm 22.6 20.2 7.2 37 8.0 N 9 15 5 8 1007.4 1007.4 0.0
28/09:30pm 23.0 18.5 6.3 34 8.5 NE 19 26 10 14 1007.4 1007.4 0.0
28/09:00pm 23.3 19.0 7.0 35 8.5 NE 19 26 10 14 1007.6 1007.6 0.0
28/08:30pm 22.9 20.0 12.8 53 5.8 NE 20 26 11 14 1008.0 1008.0 0.0
28/08:00pm 24.5 20.4 8.0 35 8.8 NE 19 24 10 13 1008.7 1008.7 0.0
28/07:30pm 24.5 21.1 9.3 38 8.3 NE 17 22 9 12 1009.1 1009.1 0.0
28/07:00pm 25.3 20.5 8.7 35 9.0 NE 24 33 13 18 1009.2 1009.2 0.0
28/06:30pm 25.5 22.1 11.3 41 8.0 NE 20 26 11 14 1009.3 1009.3 0.0
28/06:00pm 26.4 23.8 12.1 41 8.2 ENE 17 24 9 13 1009.4 1009.4 0.0
28/05:30pm 25.7 22.2 13.5 46 7.2 NE 24 33 13 18 1009.3 1009.3 0.0
28/05:00pm 26.5 22.2 13.3 44 7.7 NE 28 37 15 20 1009.3 1009.3 0.0
28/04:30pm 27.6 21.7 10.3 34 9.7 ENE 32 44 17 24 1009.4 1009.4 0.0
28/04:00pm 28.9 23.3 10.1 31 10.6 ENE 30 39 16 21 1009.6 1009.6 0.0
28/03:30pm 28.6 23.2 10.8 33 10.1 ENE 30 39 16 21 1009.9 1009.9 0.0
28/03:00pm 31.5 28.5 9.1 25 12.6 WNW 15 26 8 14 1010.1 1010.1 0.0
28/02:30pm 32.7 26.7 3.6 16 15.0 N 24 37 13 20 1010.6 1010.6 0.0
28/02:00pm 32.3 26.1 4.2 17 14.6 NW 26 39 14 21 1011.0 1011.0 0.0
28/01:30pm 32.0 26.6 4.7 18 14.3 NNW 22 35 12 19 1011.5 1011.5 0.0
28/01:00pm 32.0 26.3 4.7 18 14.3 NNW 24 41 13 22 1011.9 1011.9 0.0
28/12:30pm 31.3 23.8 3.4 17 14.2 N 32 41 17 22 1012.5 1012.5 0.0
28/12:00pm 31.0 23.3 2.3 16 14.3 N 32 39 17 21 1013.0 1013.0 0.0
28/11:30am 30.0 23.1 2.3 17 13.8 NNW 28 39 15 21 1013.6 1013.6 0.0
28/11:00am 29.2 22.3 2.5 18 13.2 NNW 28 37 15 20 1013.8 1013.8 0.0
28/10:30am 28.4 21.1 2.6 19 12.7 N 30 39 16 21 1014.2 1014.2 0.0
28/10:00am 27.7 22.0 2.7 20 12.3 N 22 32 12 17 1014.3 1014.3 0.0
28/09:30am 25.5 20.2 2.9 23 11.0 NNW 20 32 11 17 1014.4 1014.4 0.0
28/09:00am 23.5 17.3 2.4 25 10.0 NW 24 32 13 17 1014.5 1014.5 0.0
28/08:30am 21.8 14.5 2.5 28 9.1 NNW 30 39 16 21 1014.3 1014.3 0.0
28/08:00am 20.8 15.0 2.1 29 8.7 NNW 22 30 12 16 1014.3 1014.3 0.0
28/07:30am 19.9 14.5 2.3 31 8.1 NNW 20 24 11 13 1014.3 1014.3 0.0
28/07:00am 19.3 15.2 2.2 32 7.8 NNW 13 20 7 11 1014.3 1014.3 0.0
28/06:30am 18.7 14.8 3.3 36 7.2 NNW 13 17 7 9 1014.3 1014.3 0.0
28/06:00am 17.0 13.2 4.0 42 6.1 NNW 13 28 7 15 1014.4 1014.4 0.0
28/05:58am 18.5 14.8 4.7 40 6.6 NNW 13 28 7 15 1014.3 1014.3 0.0
28/05:30am 13.3 10.1 5.2 58 3.8 NNW 11 20 6 11 1014.4 1014.4 0.0
28/05:00am 12.0 9.1 6.5 69 2.6 NW 11 15 6 8 1014.6 1014.6 0.0
28/04:30am 13.4 13.0 8.3 71 2.5 CALM 0 0 0 0 1014.6 1014.6 0.0
28/04:00am 13.9 12.6 9.1 73 2.4 N 6 7 3 4 1014.9 1014.9 0.0
28/03:30am 15.7 14.2 10.5 71 2.7 N 9 11 5 6 1015.1 1015.1 0.0
28/03:00am 12.0 10.4 8.8 81 1.6 N 7 11 4 6 1015.6 1015.6 0.0
28/02:30am 12.1 10.8 10.0 87 1.1 NW 7 9 4 5 1015.8 1015.8 0.0
28/02:00am 12.7 10.9 10.8 88 1.0 NW 11 13 6 7 1016.0 1016.0 0.0
28/01:30am 13.4 11.9 12.0 91 0.8 NW 11 13 6 7 1016.3 1016.3 0.0
28/01:00am 13.9 12.6 12.5 91 0.8 WNW 11 13 6 7 1016.7 1016.7 0.0
28/12:30am 13.7 12.2 11.9 89 1.0 NW 11 13 6 7 1017.0 1017.0 0.0
28/12:00am 13.8 12.7 11.8 88 1.1 NW 9 11 5 6 1017.3 1017.3 0.0
 
Date/Time
CDT
Temp
°C
App
Temp
°C
Dew
Point
°C
Rel
Hum
%
Delta-T
°C
Wind Press
QNH
hPa
Press
MSL
hPa
Rain since
9am
mm
Dir  Spd
km/h
Gust
km/h
Spd
kts
Gust
kts
27/11:30pm 13.8 12.8 11.1 84 1.4 NNW 7 9 4 5 1017.6 1017.6 0.0
27/11:00pm 14.2 13.3 11.5 84 1.4 WNW 7 9 4 5 1017.9 1017.9 0.0
27/10:30pm 15.5 16.2 13.3 87 1.2 WNW 2 9 1 5 1018.0 1018.0 0.0
27/10:00pm 15.1 14.5 12.4 84 1.5 WNW 7 9 4 5 1018.1 1018.1 0.0
27/09:30pm 15.7 15.1 13.4 86 1.3 WNW 9 11 5 6 1018.1 1018.1 0.0
27/09:00pm 16.6 16.3 14.4 87 1.3 ESE 9 9 5 5 1018.0 1018.0 0.0
27/08:30pm 17.1 18.4 14.2 83 1.7 CALM 0 0 0 0 1017.9 1017.9 0.0
27/08:00pm 17.8 17.1 13.1 74 2.6 SE 9 11 5 6 1017.8 1017.8 0.0
27/07:30pm 19.2 18.2 13.4 69 3.3 ESE 11 13 6 7 1017.8 1017.8 0.0
27/07:00pm 20.9 20.0 13.6 63 4.2 ESE 11 13 6 7 1017.7 1017.7 0.0
27/06:30pm 21.6 20.3 13.8 61 4.5 E 13 17 7 9 1017.6 1017.6 0.0
27/06:00pm 22.0 20.9 14.4 62 4.4 E 13 19 7 10 1017.7 1017.7 0.0
27/05:30pm 22.6 21.4 13.9 58 5.1 ENE 13 19 7 10 1017.9 1017.9 0.0
27/05:00pm 22.5 21.2 13.8 58 5.1 E 13 19 7 10 1018.0 1018.0 0.0
27/04:30pm 23.0 20.7 14.0 57 5.3 E 19 24 10 13 1018.2 1018.2 0.0
27/04:00pm 22.6 19.9 13.4 56 5.3 E 20 24 11 13 1018.4 1018.4 0.0
27/03:30pm 22.6 19.7 12.8 54 5.6 E 20 26 11 14 1018.6 1018.6 0.0
27/03:00pm 23.0 20.5 14.0 57 5.3 E 20 24 11 13 1018.9 1018.9 0.0
27/02:30pm 23.1 21.1 14.9 60 4.9 E 19 26 10 14 1019.3 1019.3 0.0
27/02:00pm 22.4 20.2 15.0 63 4.4 E 20 26 11 14 1019.7 1019.7 0.0
27/01:30pm 22.8 21.1 14.6 60 4.8 E 17 22 9 12 1020.2 1020.2 0.0
27/01:00pm 22.2 19.9 14.1 60 4.7 E 19 24 10 13 1020.6 1020.6 0.0
27/12:30pm 21.8 20.1 14.7 64 4.2 E 17 22 9 12 1021.0 1021.0 0.0
27/12:00pm 21.9 20.5 15.5 67 3.8 E 17 20 9 11 1021.2 1021.2 0.0
27/11:30am 21.4 20.4 15.7 70 3.4 ENE 15 20 8 11 1021.6 1021.6 0.0
27/11:01am 21.4 20.4 15.7 70 3.4 E 15 20 8 11 1021.8 1021.8 0.0
27/11:00am 21.4 20.5 15.9 71 3.3 E 15 20 8 11 1021.8 1021.8 0.0
27/10:49am 21.3 20.8 16.0 72 3.2 ENE 13 17 7 9 1021.8 1021.8 0.0
27/10:30am 20.7 20.1 15.7 73 3.0 ENE 13 20 7 11 1021.9 1021.9 0.0
27/10:00am 20.3 19.9 16.1 77 2.5 ENE 13 20 7 11 1022.0 1022.0 0.0
27/09:30am 18.2 20.2 16.0 87 1.3 CALM 0 6 0 3 1022.1 1022.1 0.0
27/09:00am 17.2 18.3 15.7 91 0.9 N 4 7 2 4 1021.9 1021.9 0.0
27/08:30am 15.0 16.3 14.2 95 0.5 CALM 0 0 0 0 1021.8 1021.8 0.0
27/08:00am 13.3 14.1 12.4 94 0.5 CALM 0 0 0 0 1021.8 1021.8 0.0
27/07:30am 12.8 13.3 11.7 93 0.6 CALM 0 0 0 0 1021.8 1021.8 0.0
27/07:01am 12.9 13.4 11.5 91 0.7 CALM 0 6 0 3 1021.6 1021.6 0.0
27/07:00am 13.0 13.5 11.6 91 0.7 CALM 0 6 0 3 1021.6 1021.6 0.0
27/06:54am 14.4 14.6 13.1 92 0.7 E 4 7 2 4 1021.5 1021.5 0.0
27/06:30am 14.6 14.2 13.1 91 0.8 E 7 11 4 6 1021.4 1021.4 0.0
27/06:00am 14.9 14.2 13.1 89 1.0 E 9 11 5 6 1021.2 1021.2 0.0
27/05:57am 14.9 14.1 12.9 88 1.1 E 9 13 5 7 1021.2 1021.2 0.0
27/05:30am 15.7 14.5 13.9 89 1.0 E 13 15 7 8 1021.1 1021.1 0.0
27/05:00am 15.6 14.8 14.0 90 0.9 E 11 15 6 8 1021.1 1021.1 0.0
27/04:30am 14.9 14.2 13.1 89 1.0 E 9 13 5 7 1021.1 1021.1 0.0
27/04:02am 14.9 13.6 12.4 85 1.4 E 11 15 6 8 1021.4 1021.4 0.0
27/04:00am 15.1 13.8 12.6 85 1.4 E 11 15 6 8 1021.4 1021.4 0.0
27/03:44am 15.9 14.6 13.6 86 1.3 E 13 17 7 9 1021.5 1021.5 0.0
27/03:30am 15.6 14.0 12.9 84 1.5 E 13 17 7 9 1021.7 1021.7 0.0
27/03:00am 16.1 13.9 13.2 83 1.6 E 17 20 9 11 1021.9 1021.9 0.0
27/02:30am 16.3 13.9 12.8 80 1.9 E 17 20 9 11 1022.2 1022.2 0.0
27/02:00am 16.2 13.5 12.9 81 1.8 E 19 24 10 13 1022.3 1022.3 0.0
27/01:30am 16.2 14.1 13.5 84 1.5 E 17 24 9 13 1022.5 1022.5 0.0
27/01:00am 16.3 13.8 13.4 83 1.6 E 19 20 10 11 1022.5 1022.5 0.0
27/12:30am 15.7 14.1 12.8 83 1.6 ESE 13 17 7 9 1022.8 1022.8 0.0
27/12:00am 15.4 13.6 12.2 81 1.7 ESE 13 15 7 8 1022.9 1022.9 0.0
 
Date/Time
CDT
Temp
°C
App
Temp
°C
Dew
Point
°C
Rel
Hum
%
Delta-T
°C
Wind Press
QNH
hPa
Press
MSL
hPa
Rain since
9am
mm
Dir  Spd
km/h
Gust
km/h
Spd
kts
Gust
kts
26/11:30pm 15.7 13.9 12.1 79 2.0 ESE 13 19 7 10 1023.0 1023.0 0.0
26/11:00pm 15.3 13.4 11.7 79 1.9 ESE 13 15 7 8 1023.0 1023.0 0.0
26/10:30pm 15.4 13.3 11.2 76 2.2 ESE 13 15 7 8 1023.0 1023.0 0.0
26/10:00pm 15.6 13.1 11.2 75 2.4 SE 15 17 8 9 1023.0 1023.0 0.0
26/09:30pm 15.6 13.0 10.8 73 2.5 SE 15 19 8 10 1023.0 1023.0 0.0
26/09:00pm 15.1 12.4 10.3 73 2.5 SE 15 17 8 9 1022.9 1022.9 0.0
26/08:30pm 14.8 12.3 9.8 72 2.6 ESE 13 13 7 7 1022.8 1022.8 0.0

Other formats

Comma delimited format used in spreadsheet applications
http://www.bom.gov.au/fwo/IDS60801/IDS60801.95661.axf

JavaScript Object Notation format (JSON) in row-major order
http://www.bom.gov.au/fwo/IDS60801/IDS60801.95661.json

Data quality

Most of these data are generated automatically and are frequently updated. Quality checks on data are not normally performed. It is possible for incorrect values to appear. Refer to information at About Latest Weather Observations and please check the disclaimer before using these data.